createdAt,value
2022-10-30T00:01:05.921Z,37.40
2022-10-30T00:03:33.692Z,41.03
2022-10-30T00:06:05.404Z,37.80
2022-10-30T00:08:35.150Z,36.70
2022-10-30T00:11:07.865Z,37.67
2022-10-30T00:13:35.934Z,32.53
2022-10-30T00:16:07.000Z,37.92
2022-10-30T00:18:36.621Z,33.33
2022-10-30T00:21:09.544Z,30.05
2022-10-30T00:23:38.638Z,32.58
2022-10-30T00:26:07.720Z,38.75
2022-10-30T00:28:35.470Z,30.17
2022-10-30T00:31:03.947Z,38.30
2022-10-30T00:33:32.081Z,33.47
2022-10-30T00:36:00.027Z,34.05
2022-10-30T00:38:27.902Z,32.45
2022-10-30T00:40:56.990Z,32.97
2022-10-30T00:43:30.948Z,36.33
2022-10-30T00:46:01.652Z,35.20
2022-10-30T00:48:29.704Z,32.33
2022-10-30T00:51:00.924Z,30.08
2022-10-30T00:53:30.131Z,28.70
2022-10-30T00:56:02.840Z,32.60
2022-10-30T00:58:35.287Z,32.83
2022-10-30T01:01:08.268Z,33.65
2022-10-30T01:03:38.045Z,35.28
2022-10-30T01:06:09.921Z,28.92
2022-10-30T01:08:39.332Z,35.38
2022-10-30T01:11:10.138Z,30.85
2022-10-30T01:13:39.107Z,27.92
2022-10-30T01:16:20.973Z,27.48
2022-10-30T01:18:54.800Z,32.50
2022-10-30T01:21:38.640Z,35.65
2022-10-30T01:24:27.565Z,30.73
2022-10-30T01:27:10.481Z,31.52
2022-10-30T01:29:51.988Z,28.33
2022-10-30T01:32:42.505Z,28.58
2022-10-30T01:35:19.221Z,36.08
2022-10-30T01:37:56.256Z,33.00
2022-10-30T01:40:24.531Z,37.30
2022-10-30T01:42:57.519Z,30.75
2022-10-30T01:45:50.437Z,32.42
2022-10-30T01:48:44.547Z,30.05
2022-10-30T01:51:20.380Z,30.77
2022-10-30T01:53:54.490Z,30.48
2022-10-30T01:56:29.793Z,35.92
2022-10-30T01:59:10.555Z,31.65
2022-10-30T02:01:40.345Z,35.28
2022-10-30T02:04:09.278Z,31.27
2022-10-30T02:06:37.698Z,32.47
2022-10-30T02:09:06.748Z,35.47
2022-10-30T02:11:35.768Z,36.47
2022-10-30T02:14:08.071Z,35.13
2022-10-30T02:16:39.828Z,36.22
2022-10-30T02:19:07.723Z,40.78
2022-10-30T02:21:37.070Z,36.67
2022-10-30T02:24:05.440Z,37.22
2022-10-30T02:26:35.180Z,36.78
2022-10-30T02:29:03.121Z,34.92
2022-10-30T02:31:30.915Z,42.95
2022-10-30T02:33:58.677Z,42.38
2022-10-30T02:36:26.588Z,40.53
2022-10-30T02:38:57.570Z,38.53
2022-10-30T02:41:26.461Z,38.08
2022-10-30T02:43:54.447Z,36.83
2022-10-30T02:46:22.451Z,41.83
2022-10-30T02:48:50.212Z,43.13
2022-10-30T02:51:18.316Z,32.92
2022-10-30T02:53:47.371Z,40.47
2022-10-30T02:56:16.949Z,36.13
2022-10-30T02:58:44.750Z,43.47
2022-10-30T03:01:15.029Z,36.42
2022-10-30T03:03:44.411Z,37.10
2022-10-30T03:06:15.366Z,34.38
2022-10-30T03:08:43.528Z,40.53
2022-10-30T03:11:13.336Z,34.50
2022-10-30T03:13:43.573Z,40.08
2022-10-30T03:16:13.816Z,44.33
2022-10-30T03:18:42.085Z,43.72
2022-10-30T03:21:13.824Z,39.88
2022-10-30T03:23:41.647Z,42.70
2022-10-30T03:26:09.453Z,47.53
2022-10-30T03:28:46.611Z,49.33
2022-10-30T03:31:16.700Z,48.67
2022-10-30T03:33:45.017Z,42.70
2022-10-30T03:36:15.069Z,42.00
2022-10-30T03:38:43.939Z,38.08
2022-10-30T03:41:15.343Z,43.63
2022-10-30T03:43:46.172Z,41.03
2022-10-30T03:46:13.926Z,42.63
2022-10-30T03:48:41.716Z,46.35
2022-10-30T03:51:10.276Z,47.50
2022-10-30T03:53:38.163Z,44.83
2022-10-30T03:56:06.763Z,43.50
2022-10-30T03:58:45.644Z,41.13
2022-10-30T04:01:18.601Z,42.05
2022-10-30T04:03:50.442Z,41.58
2022-10-30T04:06:18.689Z,41.40
2022-10-30T04:08:46.528Z,47.70
2022-10-30T04:11:14.382Z,45.17
2022-10-30T04:13:42.447Z,42.58
2022-10-30T04:16:11.520Z,43.33
2022-10-30T04:18:39.383Z,43.47
2022-10-30T04:21:07.360Z,37.85
2022-10-30T04:23:36.833Z,40.97
2022-10-30T04:26:05.461Z,37.65
2022-10-30T04:28:34.075Z,38.00
2022-10-30T04:31:02.126Z,44.60
2022-10-30T04:33:31.447Z,44.20
2022-10-30T04:36:00.277Z,49.72
2022-10-30T04:38:28.189Z,42.08
2022-10-30T04:40:57.198Z,42.17
2022-10-30T04:43:35.421Z,43.97
2022-10-30T04:46:05.706Z,44.35
2022-10-30T04:48:36.133Z,34.65
2022-10-30T04:51:03.989Z,44.50
2022-10-30T04:53:31.780Z,40.67
2022-10-30T04:56:06.639Z,44.80
2022-10-30T04:58:34.479Z,46.08
2022-10-30T05:01:07.331Z,43.67
2022-10-30T05:03:38.038Z,43.58
2022-10-30T05:06:19.209Z,42.88
2022-10-30T05:08:46.994Z,43.60
2022-10-30T05:11:26.169Z,43.95
2022-10-30T05:13:53.973Z,43.42
2022-10-30T05:16:21.776Z,40.60
2022-10-30T05:18:50.944Z,40.05
2022-10-30T05:21:18.672Z,39.25
2022-10-30T05:23:47.484Z,38.42
2022-10-30T05:26:15.394Z,46.38
2022-10-30T05:28:43.253Z,46.80
2022-10-30T05:31:11.082Z,42.67
2022-10-30T05:34:07.217Z,48.85
2022-10-30T05:36:38.056Z,44.05
2022-10-30T05:39:06.692Z,43.97
2022-10-30T05:41:41.546Z,44.30
2022-10-30T05:44:09.737Z,43.53
2022-10-30T05:46:38.331Z,50.97
2022-10-30T05:49:20.243Z,44.03
2022-10-30T05:51:48.339Z,45.28
2022-10-30T05:54:16.898Z,34.20
2022-10-30T05:57:03.357Z,52.85
2022-10-30T05:59:34.637Z,47.17
2022-10-30T06:02:02.433Z,44.17
2022-10-30T06:04:31.944Z,51.50
2022-10-30T06:07:01.905Z,39.42
2022-10-30T06:09:29.672Z,41.65
2022-10-30T06:12:04.663Z,42.05
2022-10-30T06:14:52.684Z,41.03
2022-10-30T06:17:20.600Z,38.67
2022-10-30T06:19:57.589Z,38.60
2022-10-30T06:22:55.333Z,40.10
2022-10-30T06:25:25.834Z,36.70
2022-10-30T06:28:14.803Z,37.83
2022-10-30T06:30:43.508Z,38.95
2022-10-30T06:33:11.813Z,38.72
2022-10-30T06:35:48.861Z,39.55
2022-10-30T06:38:17.760Z,37.80
2022-10-30T06:40:46.477Z,39.70
2022-10-30T06:43:24.647Z,38.30
2022-10-30T06:45:59.116Z,43.30
2022-10-30T06:48:28.044Z,43.60
2022-10-30T06:50:58.637Z,40.13
2022-10-30T06:53:27.741Z,38.42
2022-10-30T06:56:02.522Z,38.33
2022-10-30T06:58:48.980Z,39.83
2022-10-30T07:01:34.514Z,38.10
2022-10-30T07:04:13.773Z,38.03
2022-10-30T07:06:42.873Z,38.38
2022-10-30T07:09:10.865Z,35.58
2022-10-30T07:11:40.128Z,36.00
2022-10-30T07:14:35.541Z,35.50
2022-10-30T07:17:23.631Z,34.17
2022-10-30T07:19:56.604Z,29.02
2022-10-30T07:22:25.997Z,36.00
2022-10-30T07:24:55.550Z,32.47
2022-10-30T07:27:43.509Z,34.47
2022-10-30T07:30:33.477Z,33.28
2022-10-30T07:33:14.581Z,33.58
2022-10-30T07:36:05.881Z,30.02
2022-10-30T07:38:54.980Z,32.78
2022-10-30T07:41:36.103Z,31.38
2022-10-30T07:44:22.512Z,32.65
2022-10-30T07:47:25.811Z,33.42
2022-10-30T07:50:12.032Z,28.27
2022-10-30T07:52:40.290Z,26.73
2022-10-30T07:55:11.658Z,36.50
2022-10-30T07:57:45.518Z,30.17
2022-10-30T08:00:31.721Z,33.78
2022-10-30T08:03:10.097Z,29.27
2022-10-30T08:05:45.089Z,26.50
2022-10-30T08:08:15.409Z,25.05
2022-10-30T08:10:44.746Z,27.38
2022-10-30T08:13:14.160Z,26.13
2022-10-30T08:15:43.428Z,34.13
2022-10-30T08:18:11.241Z,25.35
2022-10-30T08:20:41.825Z,26.77
2022-10-30T08:23:10.076Z,28.30
2022-10-30T08:25:37.843Z,31.75
2022-10-30T08:28:08.394Z,26.45
2022-10-30T08:30:38.993Z,26.60
2022-10-30T08:33:14.308Z,29.98
2022-10-30T08:35:58.832Z,29.67
2022-10-30T08:38:28.307Z,26.55
2022-10-30T08:41:11.425Z,26.30
2022-10-30T08:43:46.873Z,26.10
2022-10-30T08:46:14.765Z,22.90
2022-10-30T08:48:42.635Z,28.17
2022-10-30T08:51:10.780Z,23.88
2022-10-30T08:53:44.457Z,21.73
2022-10-30T08:56:15.159Z,29.27
2022-10-30T08:58:54.601Z,23.13
2022-10-30T09:01:22.883Z,23.65
2022-10-30T09:04:16.613Z,27.67
2022-10-30T09:07:19.624Z,22.10
2022-10-30T09:10:16.907Z,21.60
2022-10-30T09:12:44.688Z,23.55
2022-10-30T09:15:13.951Z,25.13
2022-10-30T09:17:57.555Z,28.20
2022-10-30T09:20:26.392Z,24.13
2022-10-30T09:22:54.615Z,21.45
2022-10-30T09:25:22.781Z,21.92
2022-10-30T09:27:58.066Z,20.75
2022-10-30T09:30:30.686Z,25.90
2022-10-30T09:33:03.425Z,21.92
2022-10-30T09:35:50.452Z,19.15
2022-10-30T09:38:18.318Z,24.23
2022-10-30T09:41:04.266Z,23.45
2022-10-30T09:43:45.169Z,20.48
2022-10-30T09:46:36.345Z,21.13
2022-10-30T09:49:21.190Z,19.67
2022-10-30T09:52:07.617Z,20.65
2022-10-30T09:54:55.137Z,23.08
2022-10-30T09:57:31.159Z,17.42
2022-10-30T10:00:05.918Z,22.45
2022-10-30T10:02:57.144Z,24.30
2022-10-30T10:05:33.497Z,22.00
2022-10-30T10:08:36.030Z,24.63
2022-10-30T10:11:26.789Z,23.75
2022-10-30T10:13:58.753Z,18.67
2022-10-30T10:16:29.755Z,22.45
2022-10-30T10:19:06.602Z,19.85
2022-10-30T10:21:39.402Z,25.52
2022-10-30T10:24:19.635Z,21.13
2022-10-30T10:26:50.585Z,27.10
2022-10-30T10:29:39.551Z,25.20
2022-10-30T10:32:48.594Z,21.25
2022-10-30T10:35:40.591Z,23.35
2022-10-30T10:38:17.524Z,20.30
2022-10-30T10:40:56.033Z,23.73
2022-10-30T10:43:36.397Z,17.85
2022-10-30T10:46:22.574Z,28.42
2022-10-30T10:49:09.964Z,28.42
2022-10-30T10:51:41.409Z,20.35
2022-10-30T10:54:13.067Z,24.48
2022-10-30T10:56:43.659Z,20.98
2022-10-30T10:59:17.586Z,19.15
2022-10-30T11:01:51.147Z,21.20
2022-10-30T11:04:29.078Z,23.27
2022-10-30T11:06:59.444Z,20.60
2022-10-30T11:09:28.239Z,20.60
2022-10-30T11:11:56.351Z,23.63
2022-10-30T11:14:25.139Z,21.58
2022-10-30T11:17:03.526Z,19.50
2022-10-30T11:19:32.445Z,19.70
2022-10-30T11:22:03.056Z,23.35
2022-10-30T11:24:32.863Z,24.40
2022-10-30T11:27:18.334Z,23.73
2022-10-30T11:29:52.537Z,18.63
2022-10-30T11:32:22.627Z,21.02
2022-10-30T11:35:02.911Z,18.95
2022-10-30T11:37:34.153Z,19.30
2022-10-30T11:40:07.721Z,21.63
2022-10-30T11:42:36.219Z,18.25
2022-10-30T11:45:05.280Z,19.98
2022-10-30T11:50:17.492Z,17.40
2022-10-30T11:52:47.912Z,22.20
2022-10-30T11:55:19.099Z,18.92
2022-10-30T11:57:50.001Z,17.95
2022-10-30T12:00:20.808Z,22.40
2022-10-30T12:02:51.656Z,19.40
2022-10-30T12:05:37.902Z,22.70
2022-10-30T12:08:22.320Z,14.93
2022-10-30T12:10:58.774Z,20.17
2022-10-30T12:13:28.899Z,22.00
2022-10-30T12:16:09.771Z,16.40
2022-10-30T12:18:38.152Z,20.48
2022-10-30T12:21:06.343Z,22.55
2022-10-30T12:23:36.235Z,22.48
2022-10-30T12:26:11.772Z,16.80
2022-10-30T12:28:40.348Z,20.65
2022-10-30T12:31:13.807Z,18.67
2022-10-30T12:33:44.957Z,21.58
2022-10-30T12:36:16.609Z,17.38
2022-10-30T12:38:50.178Z,17.83
2022-10-30T12:41:24.688Z,18.88
2022-10-30T12:43:59.832Z,19.75
2022-10-30T12:46:34.140Z,21.90
2022-10-30T12:49:12.196Z,20.10
2022-10-30T12:51:48.722Z,17.23
2022-10-30T12:54:23.771Z,15.85
2022-10-30T12:56:57.068Z,28.05
2022-10-30T12:59:32.088Z,18.25
2022-10-30T13:02:05.705Z,17.42
2022-10-30T13:04:37.772Z,19.98
2022-10-30T13:07:13.054Z,21.17
2022-10-30T13:09:49.390Z,19.75
2022-10-30T13:12:21.250Z,25.63
2022-10-30T13:14:54.291Z,21.17
2022-10-30T13:17:22.265Z,15.82
2022-10-30T13:19:51.017Z,19.52
2022-10-30T13:22:24.788Z,17.55
2022-10-30T13:25:04.086Z,25.67
2022-10-30T13:27:41.776Z,18.20
2022-10-30T13:30:14.958Z,20.30
2022-10-30T13:32:59.886Z,23.13
2022-10-30T13:35:34.644Z,20.15
2022-10-30T13:38:12.509Z,22.10
2022-10-30T13:40:44.273Z,19.02
2022-10-30T13:43:23.812Z,17.20
2022-10-30T13:46:11.637Z,16.02
2022-10-30T13:48:59.572Z,17.98
2022-10-30T13:51:36.704Z,16.67
2022-10-30T13:54:18.110Z,18.25
2022-10-30T13:56:48.832Z,16.70
2022-10-30T13:59:36.367Z,14.10
2022-10-30T14:02:13.247Z,19.13
2022-10-30T14:04:48.502Z,15.27
2022-10-30T14:07:27.654Z,20.13
2022-10-30T14:10:02.291Z,25.17
2022-10-30T14:12:53.775Z,21.38
2022-10-30T14:15:33.318Z,18.77
2022-10-30T14:18:25.997Z,16.23
2022-10-30T14:20:54.848Z,19.88
2022-10-30T14:23:24.848Z,17.50
2022-10-30T14:26:15.191Z,21.48
2022-10-30T14:28:45.572Z,23.17
2022-10-30T14:31:16.572Z,19.95
2022-10-30T14:33:47.675Z,19.90
2022-10-30T14:36:21.776Z,21.85
2022-10-30T14:39:00.650Z,16.73
2022-10-30T14:41:48.166Z,19.52
2022-10-30T14:44:47.387Z,19.90
2022-10-30T14:47:43.921Z,24.42
2022-10-30T14:50:20.871Z,24.73
2022-10-30T14:53:03.035Z,18.83
2022-10-30T14:55:34.553Z,17.88
2022-10-30T14:58:23.140Z,17.00
2022-10-30T15:01:09.214Z,16.40
2022-10-30T15:03:48.220Z,18.50
2022-10-30T15:06:25.403Z,17.10
2022-10-30T15:09:06.377Z,23.52
2022-10-30T15:11:56.272Z,16.13
2022-10-30T15:14:40.464Z,20.98
2022-10-30T15:17:27.616Z,20.67
2022-10-30T15:19:56.144Z,17.88
2022-10-30T15:22:27.318Z,18.77
2022-10-30T15:24:55.458Z,18.95
2022-10-30T15:27:24.813Z,18.42
2022-10-30T15:29:56.102Z,21.40
2022-10-30T15:32:26.089Z,20.35
2022-10-30T15:34:56.109Z,18.98
2022-10-30T15:37:24.149Z,18.83
2022-10-30T15:40:09.637Z,18.23
2022-10-30T15:42:38.127Z,19.95
2022-10-30T15:45:07.002Z,19.45
2022-10-30T15:47:36.127Z,22.23
2022-10-30T15:50:04.013Z,16.27
2022-10-30T15:52:34.202Z,25.17
2022-10-30T15:55:06.890Z,22.25
2022-10-30T16:00:28.378Z,20.65
2022-10-30T16:03:06.035Z,19.25
2022-10-30T16:05:34.700Z,22.50
2022-10-30T16:08:04.122Z,21.00
2022-10-30T16:10:35.307Z,23.42
2022-10-30T16:13:04.769Z,24.70
2022-10-30T16:15:35.612Z,20.60
2022-10-30T16:18:16.335Z,20.05
2022-10-30T16:20:45.993Z,26.30
2022-10-30T16:23:14.613Z,28.45
2022-10-30T16:25:47.000Z,24.45
2022-10-30T16:28:26.970Z,25.92
2022-10-30T16:30:55.750Z,22.85
2022-10-30T16:33:27.685Z,23.13
2022-10-30T16:35:56.396Z,21.98
2022-10-30T16:38:25.541Z,27.08
2022-10-30T16:40:53.608Z,28.92
2022-10-30T16:43:28.244Z,26.40
2022-10-30T16:45:57.255Z,23.50
2022-10-30T16:48:30.080Z,27.20
2022-10-30T16:51:03.539Z,29.13
2022-10-30T16:53:32.139Z,26.73
2022-10-30T16:56:00.725Z,23.98
2022-10-30T16:58:31.398Z,30.48
2022-10-30T17:01:04.333Z,30.05
2022-10-30T17:03:38.114Z,28.23
2022-10-30T17:06:08.314Z,30.75
2022-10-30T17:08:41.519Z,23.65
2022-10-30T17:11:18.482Z,26.67
2022-10-30T17:14:02.427Z,25.48
2022-10-30T17:16:32.257Z,25.27
2022-10-30T17:19:02.935Z,33.95
2022-10-30T17:21:38.956Z,25.33
2022-10-30T17:24:18.087Z,28.17
2022-10-30T17:26:55.915Z,32.85
2022-10-30T17:29:45.820Z,27.15
2022-10-30T17:32:20.718Z,27.05
2022-10-30T17:35:00.110Z,24.58
2022-10-30T17:37:28.559Z,23.38
2022-10-30T17:39:56.299Z,28.73
2022-10-30T17:42:24.106Z,25.55
2022-10-30T17:44:51.914Z,29.45
2022-10-30T17:47:20.932Z,29.05
2022-10-30T17:49:50.113Z,27.35
2022-10-30T17:52:21.023Z,26.25
2022-10-30T17:54:48.794Z,27.13
2022-10-30T17:57:16.964Z,23.52
2022-10-30T17:59:44.905Z,32.10
2022-10-30T18:02:15.187Z,24.88
2022-10-30T18:04:43.602Z,29.15
2022-10-30T18:07:13.978Z,25.02
2022-10-30T18:09:42.332Z,29.95
2022-10-30T18:12:14.561Z,24.17
2022-10-30T18:14:43.058Z,35.97
2022-10-30T18:17:11.076Z,28.30
2022-10-30T18:19:38.869Z,27.65
2022-10-30T18:22:06.647Z,31.35
2022-10-30T18:24:35.718Z,30.70
2022-10-30T18:27:03.498Z,30.13
2022-10-30T18:29:31.347Z,24.85
2022-10-30T18:31:59.093Z,31.35
2022-10-30T18:34:26.919Z,24.65
2022-10-30T18:36:54.688Z,24.33
2022-10-30T18:39:22.397Z,26.13
2022-10-30T18:41:51.519Z,33.55
2022-10-30T18:44:19.951Z,26.90
2022-10-30T18:46:48.058Z,26.25
2022-10-30T18:49:15.790Z,25.10
2022-10-30T18:51:43.634Z,32.42
2022-10-30T18:54:15.531Z,28.67
2022-10-30T18:56:43.817Z,29.17
2022-10-30T18:59:12.948Z,30.67
2022-10-30T19:01:40.895Z,26.05
2022-10-30T19:04:10.751Z,29.17
2022-10-30T19:06:38.784Z,27.92
2022-10-30T19:09:07.174Z,27.65
2022-10-30T19:11:37.321Z,28.70
2022-10-30T19:14:07.611Z,24.75
2022-10-30T19:16:36.715Z,27.42
2022-10-30T19:19:04.661Z,26.70
2022-10-30T19:21:34.495Z,28.58
2022-10-30T19:24:03.375Z,32.30
2022-10-30T19:26:31.162Z,28.40
2022-10-30T19:28:58.948Z,30.33
2022-10-30T19:31:26.711Z,30.50
2022-10-30T19:33:57.442Z,29.45
2022-10-30T19:36:31.753Z,25.13
2022-10-30T19:39:05.759Z,24.63
2022-10-30T19:41:36.660Z,25.80
2022-10-30T19:44:05.025Z,26.13
2022-10-30T19:46:32.819Z,29.60
2022-10-30T19:49:02.538Z,29.63
2022-10-30T19:51:30.274Z,27.98
2022-10-30T19:53:58.056Z,25.30
2022-10-30T19:56:25.860Z,28.58
2022-10-30T19:58:53.629Z,30.60
2022-10-30T20:01:21.589Z,25.92
2022-10-30T20:03:49.426Z,28.95
2022-10-30T20:06:19.222Z,32.25
2022-10-30T20:08:46.986Z,28.75
2022-10-30T20:11:15.026Z,22.73
2022-10-30T20:13:42.914Z,20.25
2022-10-30T20:16:12.074Z,24.77
2022-10-30T20:18:39.994Z,23.50
2022-10-30T20:21:11.276Z,23.23
2022-10-30T20:23:40.648Z,16.92
2022-10-30T20:26:19.715Z,20.60
2022-10-30T20:28:47.603Z,22.15
2022-10-30T20:31:15.375Z,18.75
2022-10-30T20:33:43.134Z,17.75
2022-10-30T20:36:12.425Z,17.55
2022-10-30T20:38:41.550Z,19.80
2022-10-30T20:41:20.788Z,23.55
2022-10-30T20:43:49.863Z,23.85
2022-10-30T20:46:18.183Z,22.65
2022-10-30T20:48:46.024Z,19.67
2022-10-30T20:51:13.832Z,24.58
2022-10-30T20:53:43.016Z,21.17
2022-10-30T20:56:11.635Z,18.23
2022-10-30T20:58:39.475Z,23.10
2022-10-30T21:01:07.725Z,19.60
2022-10-30T21:03:35.578Z,26.40
2022-10-30T21:06:03.473Z,22.80
2022-10-30T21:08:32.316Z,23.58
2022-10-30T21:11:02.349Z,21.50
2022-10-30T21:13:30.531Z,26.13
2022-10-30T21:16:01.958Z,26.27
2022-10-30T21:18:29.829Z,21.02
2022-10-30T21:21:01.287Z,26.67
2022-10-30T21:23:29.053Z,27.13
2022-10-30T21:26:01.427Z,26.05
2022-10-30T21:28:29.251Z,29.15
2022-10-30T21:31:01.621Z,28.52
2022-10-30T21:33:31.119Z,26.77
2022-10-30T21:36:07.776Z,32.50
2022-10-30T21:38:41.435Z,26.88
2022-10-30T21:41:11.467Z,20.98
2022-10-30T21:43:39.331Z,23.58
2022-10-30T21:46:07.635Z,25.13
2022-10-30T21:48:35.522Z,21.73
2022-10-30T21:51:07.873Z,24.50
2022-10-30T21:53:35.639Z,37.13
2022-10-30T21:56:08.485Z,92.70
2022-10-30T21:58:37.832Z,81.07
2022-10-30T22:01:06.738Z,96.35
2022-10-30T22:03:35.126Z,40.47
2022-10-30T22:06:07.110Z,28.92
2022-10-30T22:08:35.085Z,24.15
2022-10-30T22:11:07.156Z,17.73
2022-10-30T22:13:37.315Z,27.70
2022-10-30T22:16:06.774Z,66.22
2022-10-30T22:18:35.154Z,42.85
2022-10-30T22:21:06.074Z,32.17
2022-10-30T22:23:35.055Z,58.92
2022-10-30T22:26:04.530Z,62.80
2022-10-30T22:28:34.084Z,29.98
2022-10-30T22:31:08.338Z,23.13
2022-10-30T22:33:36.800Z,40.22
2022-10-30T22:36:06.154Z,23.05
2022-10-30T22:38:34.361Z,30.35
2022-10-30T22:41:12.869Z,24.90
2022-10-30T22:43:40.967Z,29.33
2022-10-30T22:46:10.829Z,31.77
2022-10-30T22:48:39.127Z,29.27
2022-10-30T22:51:13.362Z,29.50
2022-10-30T22:53:43.426Z,33.35
2022-10-30T22:56:16.408Z,31.65
2022-10-30T22:58:44.793Z,29.13
2022-10-30T23:01:15.551Z,30.40
2022-10-30T23:03:43.829Z,31.95
2022-10-30T23:06:12.370Z,25.55
2022-10-30T23:08:40.524Z,17.88
2022-10-30T23:11:08.899Z,23.23
2022-10-30T23:13:37.183Z,17.15
2022-10-30T23:16:07.750Z,26.50
2022-10-30T23:18:36.870Z,23.23
2022-10-30T23:21:06.837Z,20.42
2022-10-30T23:23:36.751Z,20.92
2022-10-30T23:26:06.336Z,20.80
2022-10-30T23:28:34.142Z,26.52
2022-10-30T23:31:04.690Z,20.40
2022-10-30T23:33:32.432Z,21.27
2022-10-30T23:36:02.092Z,19.45
2022-10-30T23:38:30.327Z,21.48
2022-10-30T23:40:58.236Z,21.38
2022-10-30T23:43:26.020Z,18.38
2022-10-30T23:45:53.856Z,19.63
2022-10-30T23:48:21.646Z,21.40
2022-10-30T23:50:49.376Z,19.33
2022-10-30T23:53:18.471Z,14.30
2022-10-30T23:55:51.766Z,15.43
2022-10-30T23:58:19.603Z,16.38
